Flight Track Log - Related Links

Times and Time Zones

All times are in EDT time to prevent confusion due to time zone crossing. See the SWA2855 flight status page for this flight to view local times or setup timezone preferences in your user account.

Time Position Orientation Groundspeed Altitude Reporting Facility
EDT Latitude Longitude Course Direction KTS MPH feet Rate Location/Type
Fri 07:18:22 AM 39.1833 -76.7333 270° West 188 216 2,900  Level Potomac TRACON
Fri 07:19:22 AM 39.1833 -76.8000 270° West 231 266 6,000 3,900 Climbing Potomac TRACON
Fri 07:20:22 AM 39.2000 -76.9000 282° West 267 307 10,700 4,150 Climbing Potomac TRACON
Fri 07:21:22 AM 39.2000 -76.9833 270° West 289 333 14,300 3,550 Climbing Potomac TRACON
Fri 07:22:22 AM 39.1500 -77.1000 241° Southwest 344 396 17,800 3,205 Climbing Potomac TRACON
Fri 07:24:03 AM 39.0972 -77.3033 252° West 389 448 22,900 1,938 Climbing Washington Center
Fri 07:25:03 AM 39.0786 -77.4392 260° West 389 448 23,000 1,388 Climbing Washington Center
Fri 07:26:04 AM 39.0575 -77.5750 259° West 394 453 25,700 1,967 Climbing Washington Center
Fri 07:27:05 AM 39.0389 -77.6975 259° West 389 448 27,000 645 Climbing Washington Center
Fri 07:28:05 AM 39.0172 -77.8519 260° West 394 453 27,000 1,068 Level Washington Center
Fri 07:29:03 AM 38.9958 -77.9900 259° West 394 453 29,100 1,500 Climbing Washington Center
Fri 07:30:05 AM 38.9744 -78.1228 258° West 389 448 30,000 454 Climbing Washington Center
Fri 07:31:02 AM 38.9611 -78.2558 263° West 389 448 30,000  Level Washington Center
Fri 07:32:04 AM 38.9642 -78.3894 272° West 389 448 30,000  Level Washington Center
Fri 07:33:02 AM 38.9694 -78.5258 273° West 384 442 30,000  Level Washington Center
Fri 07:34:05 AM 38.9744 -78.6594 273° West 384 442 30,000  Level Washington Center
Fri 07:35:05 AM 38.9856 -78.7936 276° West 384 442 30,000  Level Washington Center
Fri 07:36:04 AM 38.9964 -78.9275 276° West 384 442 30,000  Level Washington Center
Fri 07:37:05 AM 39.0053 -79.0589 275° West 389 448 30,000  Level Washington Center
Fri 07:38:04 AM 39.0136 -79.1956 275° West 389 448 30,000  Level Washington Center
Fri 07:39:04 AM 39.0222 -79.3297 275° West 389 448 30,000  Level Washington Center
Fri 07:40:05 AM 39.0344 -79.4639 277° West 389 448 30,000  Level Washington Center
Fri 07:41:02 AM 39.0428 -79.5981 275° West 389 448 30,000  Level Washington Center
Fri 07:42:03 AM 39.0511 -79.7214 275° West 392 451 30,000  Level Washington Center
Fri 07:43:04 AM 39.0608 -79.8556 275° West 386 444 30,000  Level Washington Center
Fri 07:45:06 AM 39.0736 -80.1372 273° West 383 441 30,000  Level Indianapolis Center
Fri 07:46:08 AM 39.0828 -80.2728 275° West 382 440 30,000  Level Indianapolis Center
Fri 07:47:09 AM 39.0906 -80.4100 274° West 385 443 30,000 -49 Level Indianapolis Center
Fri 07:48:11 AM 39.1008 -80.5450 276° West 382 440 29,900 -629 Descending Indianapolis Center
Fri 07:49:13 AM 39.1436 -80.7003 290° West 384 442 28,700 -1,073 Descending Indianapolis Center
Fri 07:50:14 AM 39.1786 -80.8261 290° West 377 434 27,700 -976 Descending Indianapolis Center
Fri 07:51:16 AM 39.2139 -80.9531 290° West 377 434 26,700 -976 Descending Indianapolis Center
Fri 07:52:17 AM 39.2483 -81.0756 290° West 368 423 25,700 -976 Descending Indianapolis Center
Fri 07:53:19 AM 39.2822 -81.2000 289° West 369 425 24,700 -968 Descending Indianapolis Center
Fri 07:54:21 AM 39.3150 -81.3208 289° West 361 415 23,700 -829 Descending Indianapolis Center
Fri 07:55:22 AM 39.3475 -81.4397 290° West 355 409 23,000 -927 Descending Indianapolis Center
Fri 07:56:24 AM 39.3864 -81.5819 290° West 350 403 21,800 -1,065 Descending Indianapolis Center
Fri 07:57:26 AM 39.4183 -81.7003 289° West 350 403 20,800 -976 Descending Indianapolis Center
Fri 07:58:27 AM 39.4492 -81.8147 289° West 340 391 19,800 -1,000 Descending Indianapolis Center
Fri 07:59:02 AM 39.4669 -81.8861 288° West 336 387 19,200 -1,161 Descending Indianapolis Center
Fri 07:59:29 AM 39.4789 -81.9278 290° West 334 384 18,600 -1,808 Descending Indianapolis Center
Fri 08:00:15 AM 39.5028 -82.0219 288° West 325 374 17,000 -1,742 Descending Indianapolis Center
Fri 08:00:31 AM 39.5086 -82.0389 294° West 327 376 16,800 -2,125 Descending Indianapolis Center
Fri 08:01:03 AM 39.5417 -82.1042 303° West 321 369 15,300 -1,967 Descending Indianapolis Center
Fri 08:01:32 AM 39.5589 -82.1386 303° West 318 366 14,800 -1,082 Descending Indianapolis Center
Fri 08:02:04 AM 39.5903 -82.1983 304° West 312 359 14,200 -968 Descending Indianapolis Center
Fri 08:02:34 AM 39.6075 -82.2322 303° West 311 358 13,800 -984 Descending Indianapolis Center
Fri 08:03:05 AM 39.6369 -82.2894 304° West 308 354 13,200 -1,065 Descending Indianapolis Center
Fri 08:03:36 AM 39.6550 -82.3256 303° West 309 356 12,700 -1,600 Descending Indianapolis Center
Fri 08:04:05 AM 39.6856 -82.3814 305° West 307 353 11,600 -1,967 Descending Indianapolis Center
Fri 08:04:37 AM 39.7111 -82.4303 304° West 300 345 10,700 -1,377 Descending Indianapolis Center
Fri 08:05:06 AM 39.7300 -82.4700 302° West 294 338 10,200 -774 Descending Indianapolis Center
Fri 08:05:39 AM 39.7539 -82.5161 304° West 283 326 9,900 -197 Descending Indianapolis Center
Fri 08:06:07 AM 39.7767 -82.5592 305° West 274 315 10,000 -387 Climbing Indianapolis Center
Fri 08:06:41 AM 39.7972 -82.6003 303° West 278 320 9,500 -1,400 Descending Indianapolis Center
Fri 08:07:07 AM 39.8172 -82.6422 302° West 275 316 8,600 -1,839 Descending Indianapolis Center
Fri 08:07:43 AM 39.8392 -82.6850 304° West 277 319 7,600 -1,869 Descending Indianapolis Center
Fri 08:08:08 AM 39.8600 -82.7256 304° West 278 320 6,700 -1,672 Descending Indianapolis Center
Fri 08:08:44 AM 39.8828 -82.7711 303° West 283 326 5,900 -689 Descending Indianapolis Center
Fri 08:09:09 AM 39.9025 -82.8119 302° West 283 326 6,000  Climbing Indianapolis Center
Fri 08:09:46 AM 39.9158 -82.8611 289° West 279 321 5,900 -100 Descending Indianapolis Center
Fri 08:10:09 AM 39.9169 -82.9086 272° West 265 305 5,900 -581 Level Indianapolis Center
Fri 08:10:48 AM 39.9192 -82.9531 274° West 251 289 5,300 -1,279 Descending Indianapolis Center
Fri 08:11:10 AM 39.9217 -82.9933 275° West 232 267 4,600 -1,574 Descending Indianapolis Center
Fri 08:11:49 AM 39.9231 -83.0392 272° West 241 277 3,700 -1,180 Descending Indianapolis Center
Fri 08:12:11 AM 39.9242 -83.0781 272° West 230 265 3,400 -677 Descending Indianapolis Center
Fri 08:12:51 AM 39.9272 -83.1181 276° West 229 264 3,000 -400 Descending Indianapolis Center
Fri 08:13:11 AM 39.9294 -83.1519 275° West 192 221 3,000 -97 Level Indianapolis Center
Fri 08:13:53 AM 39.9519 -83.1764 320° Northwest 206 237 2,900 -98 Descending Indianapolis Center
Fri 08:14:12 AM 39.9681 -83.1700 17° North 194 223 2,900  Level Indianapolis Center
Fri 08:14:55 AM 39.9964 -83.1450 34° Northeast 193 222 2,900 90 Level Indianapolis Center
Fri 08:15:19 AM 40.0031 -83.1172 73° East 179 206 3,000  Climbing Indianapolis Center
Fri 08:15:56 AM 40.0053 -83.0803 85° East 185 213 2,900 -100 Descending Indianapolis Center
Fri 08:16:19 AM 40.0028 -83.0600 99° East 140 161 2,900 -387 Level Indianapolis Center
Fri 08:16:58 AM 40.0019 -83.0292 92° East 160 184 2,500 -627 Descending Indianapolis Center
Fri 08:17:26 AM 40.0000 -83.0078 97° East 120 138 2,200 -677 Descending Indianapolis Center
Fri 08:18:00 AM 39.9992 -82.9819 92° East 141 162 1,800 -689 Descending Indianapolis Center
Fri 08:18:27 AM 39.9972 -82.9586 96° East 127 146 1,500 -590 Descending Indianapolis Center
Fri 08:19:01 AM 39.9967 -82.9367 92° East 131 151 1,200 -375 Descending Indianapolis Center
Fri 08:20:03 AM 39.9931 -82.8867 95° East 129 148 900 -290 Descending Indianapolis Center

Login

Don't have an account? Register now (free) for customized features, flight alerts, and more!